createdAt,value
2019-03-22T00:00:47.777Z,99.90
2019-03-22T00:01:34.208Z,99.90
2019-03-22T00:02:20.822Z,99.90
2019-03-22T00:03:07.180Z,99.90
2019-03-22T00:03:53.904Z,99.90
2019-03-22T00:04:40.675Z,99.90
2019-03-22T00:05:27.392Z,99.90
2019-03-22T00:06:14.199Z,99.90
2019-03-22T00:07:00.737Z,99.90
2019-03-22T00:07:48.606Z,99.90
2019-03-22T00:08:35.564Z,99.90
2019-03-22T00:09:22.039Z,99.90
2019-03-22T00:10:08.768Z,99.90
2019-03-22T00:10:55.241Z,99.90
2019-03-22T00:11:41.920Z,99.90
2019-03-22T00:12:28.501Z,99.90
2019-03-22T00:13:14.743Z,99.90
2019-03-22T00:14:00.989Z,99.90
2019-03-22T00:14:47.411Z,99.90
2019-03-22T00:15:34.051Z,99.90
2019-03-22T00:16:20.679Z,99.90
2019-03-22T00:17:06.910Z,99.90
2019-03-22T00:17:53.598Z,99.90
2019-03-22T00:18:39.960Z,99.90
2019-03-22T00:19:26.577Z,99.90
2019-03-22T00:20:12.963Z,99.90
2019-03-22T00:20:59.674Z,99.90
2019-03-22T00:21:46.336Z,99.90
2019-03-22T00:22:33.026Z,99.90
2019-03-22T00:23:19.798Z,99.90
2019-03-22T00:24:06.342Z,99.90
2019-03-22T00:24:52.790Z,99.90
2019-03-22T00:25:39.532Z,99.90
2019-03-22T00:26:25.804Z,99.90
2019-03-22T00:27:16.687Z,99.90
2019-03-22T00:28:00.396Z,99.90
2019-03-22T00:28:47.060Z,99.90
2019-03-22T00:29:33.307Z,99.90
2019-03-22T00:30:19.588Z,99.90
2019-03-22T00:31:05.870Z,99.90
2019-03-22T00:31:52.139Z,99.90
2019-03-22T00:32:38.507Z,99.90
2019-03-22T00:33:24.847Z,99.90
2019-03-22T00:34:11.575Z,99.90
2019-03-22T00:34:57.975Z,99.90
2019-03-22T00:35:44.780Z,99.90
2019-03-22T00:36:31.607Z,99.90
2019-03-22T00:37:18.016Z,99.90
2019-03-22T00:38:04.555Z,99.90
2019-03-22T00:38:51.481Z,99.90
2019-03-22T00:39:38.112Z,99.90
2019-03-22T00:40:24.459Z,99.90
2019-03-22T00:41:10.730Z,99.90
2019-03-22T00:41:57.516Z,99.90
2019-03-22T00:42:43.953Z,99.90
2019-03-22T00:43:30.627Z,99.90
2019-03-22T00:44:16.795Z,99.90
2019-03-22T00:45:03.303Z,99.90
2019-03-22T00:45:49.810Z,99.90
2019-03-22T00:46:35.948Z,99.90
2019-03-22T00:47:22.224Z,99.90
2019-03-22T00:48:08.424Z,99.90
2019-03-22T00:48:55.280Z,99.90
2019-03-22T00:49:41.712Z,99.90
2019-03-22T00:50:27.962Z,99.90
2019-03-22T00:51:14.624Z,99.90
2019-03-22T00:52:01.361Z,99.90
2019-03-22T00:52:48.018Z,99.90
2019-03-22T00:53:34.311Z,99.90
2019-03-22T00:54:20.503Z,99.90
2019-03-22T00:55:07.504Z,99.90
2019-03-22T00:55:53.944Z,99.90
2019-03-22T00:56:40.159Z,99.90
2019-03-22T00:57:28.793Z,99.90
2019-03-22T00:58:15.119Z,99.90
2019-03-22T00:59:01.773Z,99.90
2019-03-22T00:59:48.390Z,99.90
2019-03-22T01:00:35.226Z,99.90
2019-03-22T01:01:21.789Z,99.90
2019-03-22T01:02:08.519Z,99.90
2019-03-22T01:02:54.738Z,99.90
2019-03-22T01:03:40.911Z,99.90
2019-03-22T01:04:27.186Z,99.90
2019-03-22T01:05:14.773Z,99.90
2019-03-22T01:06:01.035Z,99.90
2019-03-22T01:06:47.858Z,99.90
2019-03-22T01:07:34.140Z,99.90
2019-03-22T01:08:20.407Z,99.90
2019-03-22T01:09:06.661Z,99.90
2019-03-22T01:09:52.950Z,99.90
2019-03-22T01:10:39.323Z,99.90
2019-03-22T01:11:26.081Z,99.90
2019-03-22T01:12:12.371Z,99.90
2019-03-22T01:12:59.092Z,99.90
2019-03-22T01:13:45.347Z,99.90
2019-03-22T01:14:31.670Z,99.90
2019-03-22T01:15:18.063Z,99.90
2019-03-22T01:16:04.979Z,99.90
2019-03-22T01:16:51.913Z,99.90
2019-03-22T01:17:38.619Z,99.90
2019-03-22T01:18:24.991Z,99.90
2019-03-22T01:19:11.745Z,99.90
2019-03-22T01:19:58.601Z,99.90
2019-03-22T01:20:45.327Z,99.90
2019-03-22T01:21:32.307Z,99.90
2019-03-22T01:22:19.038Z,99.90
2019-03-22T01:23:05.787Z,99.90
2019-03-22T01:23:52.667Z,99.90
2019-03-22T01:24:38.881Z,99.90
2019-03-22T01:25:25.600Z,99.90
2019-03-22T01:26:12.269Z,99.90
2019-03-22T01:26:58.550Z,99.90
2019-03-22T01:27:45.329Z,99.90
2019-03-22T01:28:31.937Z,99.90
2019-03-22T01:29:18.166Z,99.90
2019-03-22T01:30:05.832Z,99.90
2019-03-22T01:30:52.646Z,99.90
2019-03-22T01:31:39.232Z,99.90
2019-03-22T01:32:25.947Z,99.90
2019-03-22T01:33:12.616Z,99.90
2019-03-22T01:33:59.601Z,99.90
2019-03-22T01:34:46.249Z,99.90
2019-03-22T01:35:32.796Z,99.90
2019-03-22T01:36:19.023Z,99.90
2019-03-22T01:37:05.224Z,99.90
2019-03-22T01:37:51.452Z,99.90
2019-03-22T01:38:38.154Z,99.90
2019-03-22T01:39:24.530Z,99.90
2019-03-22T01:40:11.814Z,99.90
2019-03-22T01:40:58.362Z,99.90
2019-03-22T01:41:44.608Z,99.90
2019-03-22T01:42:31.278Z,99.90
2019-03-22T01:43:17.491Z,99.90
2019-03-22T01:44:03.738Z,99.90
2019-03-22T01:44:50.443Z,99.90
2019-03-22T01:45:39.630Z,99.90
2019-03-22T01:46:26.436Z,99.90
2019-03-22T01:47:12.559Z,99.90
2019-03-22T01:47:58.793Z,99.90
2019-03-22T01:48:45.082Z,99.90
2019-03-22T01:49:31.705Z,99.90
2019-03-22T01:50:18.286Z,99.90
2019-03-22T01:51:04.590Z,99.90
2019-03-22T01:51:51.229Z,99.90
2019-03-22T01:56:59.550Z,99.90
2019-03-22T01:57:53.130Z,99.90
2019-03-22T01:58:34.736Z,99.90
2019-03-22T01:59:21.435Z,99.90
2019-03-22T02:00:08.748Z,99.90
2019-03-22T02:00:55.016Z,99.90
2019-03-22T02:03:31.168Z,99.90
2019-03-22T02:04:17.665Z,99.90
2019-03-22T02:05:05.562Z,99.90
2019-03-22T02:05:52.386Z,99.90
2019-03-22T02:06:38.648Z,99.90
2019-03-22T02:07:24.963Z,99.90
2019-03-22T02:08:11.212Z,99.90
2019-03-22T02:08:57.589Z,99.90
2019-03-22T02:09:43.997Z,99.90
2019-03-22T02:10:30.743Z,99.90
2019-03-22T02:11:17.592Z,99.90
2019-03-22T02:12:04.397Z,99.90
2019-03-22T02:12:50.706Z,99.90
2019-03-22T02:13:37.026Z,99.90
2019-03-22T02:14:23.247Z,99.90
2019-03-22T02:15:12.146Z,99.90
2019-03-22T02:15:58.773Z,99.90
2019-03-22T02:16:45.118Z,99.90
2019-03-22T02:17:31.988Z,99.90
2019-03-22T02:18:18.742Z,99.90
2019-03-22T02:19:05.031Z,99.90
2019-03-22T02:19:51.880Z,99.90
2019-03-22T02:20:38.721Z,99.90
2019-03-22T02:21:25.386Z,99.90
2019-03-22T02:22:11.568Z,99.90
2019-03-22T02:22:57.871Z,99.90
2019-03-22T02:23:44.591Z,99.90
2019-03-22T02:24:31.409Z,99.90
2019-03-22T02:25:17.912Z,99.90
2019-03-22T02:26:04.109Z,99.90
2019-03-22T02:26:50.368Z,99.90
2019-03-22T02:27:36.564Z,99.90
2019-03-22T02:28:23.529Z,99.90
2019-03-22T02:29:10.037Z,99.90
2019-03-22T02:29:56.244Z,99.90
2019-03-22T02:30:42.446Z,99.90
2019-03-22T02:31:28.681Z,99.90
2019-03-22T02:32:14.833Z,99.90
2019-03-22T02:33:01.194Z,99.90
2019-03-22T02:33:47.823Z,99.90
2019-03-22T02:34:33.992Z,99.90
2019-03-22T02:35:28.970Z,99.90
2019-03-22T02:36:08.441Z,99.90
2019-03-22T02:36:54.602Z,99.90
2019-03-22T02:37:41.497Z,99.90
2019-03-22T02:38:28.162Z,99.90
2019-03-22T02:39:14.429Z,99.90
2019-03-22T02:40:01.123Z,99.90
2019-03-22T02:40:47.847Z,99.90
2019-03-22T02:41:34.419Z,99.90
2019-03-22T02:42:20.901Z,99.90
2019-03-22T02:43:07.130Z,99.90
2019-03-22T02:43:54.915Z,99.90
2019-03-22T02:44:41.750Z,99.90
2019-03-22T02:45:27.978Z,99.90
2019-03-22T02:46:14.250Z,99.90
2019-03-22T02:47:01.069Z,99.90
2019-03-22T02:47:47.804Z,99.90
2019-03-22T02:48:34.590Z,99.90
2019-03-22T02:49:20.917Z,99.90
2019-03-22T02:50:18.099Z,99.90
2019-03-22T02:50:56.544Z,99.90
2019-03-22T02:51:43.301Z,99.90
2019-03-22T02:52:29.578Z,99.90
2019-03-22T02:53:15.974Z,99.90
2019-03-22T02:54:02.281Z,99.90
2019-03-22T02:54:49.170Z,99.90
2019-03-22T02:55:35.868Z,99.90
2019-03-22T02:56:22.136Z,99.90
2019-03-22T02:57:08.455Z,99.90
2019-03-22T02:57:55.425Z,99.90
2019-03-22T02:58:42.173Z,99.90
2019-03-22T02:59:28.667Z,99.90
2019-03-22T03:00:15.703Z,99.90
2019-03-22T03:01:02.386Z,99.90
2019-03-22T03:01:49.162Z,99.90
2019-03-22T03:02:35.550Z,99.90
2019-03-22T03:03:21.933Z,99.90
2019-03-22T03:04:08.215Z,99.90
2019-03-22T03:04:55.148Z,99.90
2019-03-22T03:05:41.891Z,99.90
2019-03-22T03:06:28.100Z,99.90
2019-03-22T03:07:15.709Z,99.90
2019-03-22T03:08:02.234Z,99.90
2019-03-22T03:08:48.912Z,99.90
2019-03-22T03:09:35.140Z,99.90
2019-03-22T03:10:21.421Z,99.90
2019-03-22T03:11:07.991Z,99.90
2019-03-22T03:11:54.720Z,99.90
2019-03-22T03:12:40.907Z,99.90
2019-03-22T03:13:27.627Z,99.90
2019-03-22T03:14:13.842Z,99.90
2019-03-22T03:15:00.026Z,99.90
2019-03-22T03:15:46.721Z,99.90
2019-03-22T03:16:33.427Z,99.90
2019-03-22T03:17:20.122Z,99.90
2019-03-22T03:18:06.363Z,99.90
2019-03-22T03:18:53.026Z,99.90
2019-03-22T03:19:39.714Z,99.90
2019-03-22T03:20:25.956Z,99.90
2019-03-22T03:21:12.726Z,99.90
2019-03-22T03:21:59.329Z,99.90
2019-03-22T03:22:46.129Z,99.90
2019-03-22T03:23:32.765Z,99.90
2019-03-22T03:24:19.324Z,99.90
2019-03-22T03:25:06.881Z,99.90
2019-03-22T03:25:53.293Z,99.90
2019-03-22T03:26:40.051Z,99.90
2019-03-22T03:27:26.307Z,99.90
2019-03-22T03:28:12.687Z,99.90
2019-03-22T03:28:59.321Z,99.90
2019-03-22T03:29:45.574Z,99.90
2019-03-22T03:30:32.205Z,99.90
2019-03-22T03:31:18.997Z,99.90
2019-03-22T03:32:05.639Z,99.90
2019-03-22T03:32:52.226Z,99.90
2019-03-22T03:33:38.924Z,99.90
2019-03-22T03:34:25.505Z,99.90
2019-03-22T03:35:12.289Z,99.90
2019-03-22T03:35:58.856Z,99.90
2019-03-22T03:36:45.544Z,99.90
2019-03-22T03:37:32.099Z,99.90
2019-03-22T03:38:18.931Z,99.90
2019-03-22T03:39:07.426Z,99.90
2019-03-22T03:39:54.022Z,99.90
2019-03-22T03:40:40.671Z,99.90
2019-03-22T03:41:27.012Z,99.90
2019-03-22T03:42:13.248Z,99.90
2019-03-22T03:42:59.636Z,99.90
2019-03-22T03:43:45.908Z,99.90
2019-03-22T03:44:32.218Z,99.90
2019-03-22T03:45:32.877Z,99.90
2019-03-22T03:46:19.398Z,99.90
2019-03-22T03:47:05.760Z,99.90
2019-03-22T03:47:51.962Z,99.90
2019-03-22T03:48:38.248Z,99.90
2019-03-22T03:49:24.932Z,99.90
2019-03-22T03:50:11.828Z,99.90
2019-03-22T03:50:58.440Z,99.90
2019-03-22T03:51:44.628Z,99.90
2019-03-22T03:52:30.910Z,99.90
2019-03-22T03:53:17.596Z,99.90
2019-03-22T03:54:03.840Z,99.90
2019-03-22T03:54:50.103Z,99.90
2019-03-22T03:55:36.907Z,99.90
2019-03-22T03:56:23.392Z,99.90
2019-03-22T03:57:09.567Z,99.90
2019-03-22T03:57:55.786Z,99.90
2019-03-22T03:58:52.291Z,99.90
2019-03-22T03:59:30.188Z,99.90
2019-03-22T04:00:16.455Z,99.90
2019-03-22T04:01:03.171Z,99.90
2019-03-22T04:01:49.871Z,99.90
2019-03-22T04:02:36.681Z,99.90
2019-03-22T04:03:23.299Z,99.90
2019-03-22T04:04:09.540Z,99.90
2019-03-22T04:04:55.703Z,99.90
2019-03-22T04:05:42.588Z,99.90
2019-03-22T04:06:29.072Z,99.90
2019-03-22T04:07:15.746Z,99.90
2019-03-22T04:08:01.964Z,99.90
2019-03-22T04:08:48.236Z,99.90
2019-03-22T04:09:34.608Z,99.90
2019-03-22T04:10:21.286Z,99.90
2019-03-22T04:11:08.110Z,99.90
2019-03-22T04:11:54.559Z,99.90
2019-03-22T04:12:41.299Z,99.90
2019-03-22T04:13:27.559Z,99.90
2019-03-22T04:14:13.845Z,99.90
2019-03-22T04:15:00.163Z,99.90
2019-03-22T04:15:47.017Z,99.90
2019-03-22T04:16:33.814Z,99.90
2019-03-22T04:17:20.203Z,99.90
2019-03-22T04:18:07.156Z,99.90
2019-03-22T04:18:53.931Z,99.90
2019-03-22T04:19:40.734Z,99.90
2019-03-22T04:20:27.121Z,99.90
2019-03-22T04:21:13.507Z,99.90
2019-03-22T04:22:00.362Z,99.90
2019-03-22T04:22:46.763Z,99.90
2019-03-22T04:23:33.500Z,99.90
2019-03-22T04:24:19.747Z,99.90
2019-03-22T04:25:06.220Z,99.90
2019-03-22T04:25:52.680Z,99.90
2019-03-22T04:26:39.322Z,99.90
2019-03-22T04:27:25.518Z,99.90
2019-03-22T04:28:11.741Z,99.90
2019-03-22T04:29:07.498Z,99.90
2019-03-22T04:29:46.632Z,99.90
2019-03-22T04:30:33.501Z,99.90
2019-03-22T04:31:19.724Z,99.90
2019-03-22T04:32:05.952Z,99.90
2019-03-22T04:32:52.655Z,99.90
2019-03-22T04:33:39.371Z,99.90
2019-03-22T04:34:25.611Z,99.90
2019-03-22T04:35:30.800Z,99.90
2019-03-22T04:36:17.272Z,99.90
2019-03-22T04:37:03.488Z,99.90
2019-03-22T04:37:49.695Z,99.90
2019-03-22T04:38:35.953Z,99.90
2019-03-22T04:39:22.623Z,99.90
2019-03-22T04:40:21.661Z,99.90
2019-03-22T04:41:08.248Z,99.90
2019-03-22T04:41:54.429Z,99.90
2019-03-22T04:42:40.619Z,99.90
2019-03-22T04:43:26.887Z,99.90
2019-03-22T04:44:13.116Z,99.90
2019-03-22T04:44:59.411Z,99.90
2019-03-22T04:45:46.795Z,99.90
2019-03-22T04:46:33.613Z,99.90
2019-03-22T04:47:20.861Z,99.90
2019-03-22T04:48:13.146Z,99.90
2019-03-22T04:49:00.132Z,99.90
2019-03-22T04:49:47.923Z,99.90
2019-03-22T04:50:37.002Z,99.90
2019-03-22T04:51:24.416Z,99.90
2019-03-22T04:52:11.382Z,99.90
2019-03-22T04:52:58.996Z,99.90
2019-03-22T04:53:52.140Z,99.90
2019-03-22T04:54:40.524Z,99.90
2019-03-22T04:55:27.982Z,99.90
2019-03-22T04:56:18.214Z,99.90
2019-03-22T04:57:07.369Z,99.90
2019-03-22T04:57:53.988Z,99.90
2019-03-22T04:58:42.840Z,99.90
2019-03-22T04:59:30.392Z,99.90
2019-03-22T05:00:17.348Z,99.90
2019-03-22T05:01:04.926Z,99.90
2019-03-22T05:01:54.714Z,99.90
2019-03-22T05:02:42.003Z,99.90
2019-03-22T05:03:29.951Z,99.90
2019-03-22T05:04:17.691Z,99.90
2019-03-22T05:05:04.545Z,99.90
2019-03-22T05:05:51.685Z,99.90
2019-03-22T05:06:38.839Z,99.90
2019-03-22T05:07:25.254Z,99.90
2019-03-22T05:08:13.087Z,99.90
2019-03-22T05:09:00.560Z,99.90
2019-03-22T05:09:48.102Z,99.90
2019-03-22T05:10:35.567Z,99.90
2019-03-22T05:11:23.217Z,99.90
2019-03-22T05:12:14.149Z,99.90
2019-03-22T05:13:01.231Z,99.90
2019-03-22T05:13:51.676Z,99.90
2019-03-22T05:14:39.948Z,99.90
2019-03-22T05:15:27.461Z,99.90
2019-03-22T05:16:16.035Z,99.90
2019-03-22T05:17:05.016Z,99.90
2019-03-22T05:17:52.096Z,99.90
2019-03-22T05:18:40.001Z,99.90
2019-03-22T05:19:30.067Z,99.90
2019-03-22T05:20:17.820Z,99.90
2019-03-22T05:21:05.066Z,99.90
2019-03-22T05:21:52.719Z,99.90
2019-03-22T05:22:41.463Z,99.90
2019-03-22T05:23:29.518Z,99.90
2019-03-22T05:24:18.350Z,99.90
2019-03-22T05:25:05.159Z,99.90
2019-03-22T05:25:54.702Z,99.90
2019-03-22T05:26:41.609Z,99.90
2019-03-22T05:27:29.131Z,99.90
2019-03-22T05:28:16.024Z,99.90
2019-03-22T05:29:03.658Z,99.90
2019-03-22T05:29:53.455Z,99.90
2019-03-22T05:31:22.145Z,99.90
2019-03-22T05:32:10.579Z,99.90
2019-03-22T05:32:57.019Z,99.90
2019-03-22T05:33:43.783Z,99.90
2019-03-22T05:34:30.195Z,99.90
2019-03-22T05:35:16.657Z,99.90
2019-03-22T05:36:03.364Z,99.90
2019-03-22T05:36:49.609Z,99.90
2019-03-22T05:37:36.304Z,99.90
2019-03-22T05:38:23.155Z,99.90
2019-03-22T05:39:10.250Z,99.90
2019-03-22T05:39:56.945Z,99.90
2019-03-22T05:40:43.460Z,99.90
2019-03-22T05:41:29.713Z,99.90
2019-03-22T05:42:16.026Z,99.90
2019-03-22T05:43:02.849Z,99.90
2019-03-22T05:43:49.525Z,99.90
2019-03-22T05:44:36.162Z,99.90
2019-03-22T05:45:22.452Z,99.90
2019-03-22T05:46:08.706Z,99.90
2019-03-22T05:46:55.672Z,99.90
2019-03-22T05:47:42.552Z,99.90
2019-03-22T05:48:29.621Z,99.90
2019-03-22T05:49:16.113Z,99.90
2019-03-22T05:50:03.516Z,99.90
2019-03-22T05:50:50.106Z,99.90
2019-03-22T05:51:36.939Z,99.90
2019-03-22T05:52:23.796Z,99.90
2019-03-22T05:53:10.077Z,99.90
2019-03-22T05:53:56.935Z,99.90
2019-03-22T05:54:43.344Z,99.90
2019-03-22T05:55:29.666Z,99.90
2019-03-22T05:56:15.963Z,99.90
2019-03-22T05:57:12.760Z,99.90
2019-03-22T05:57:51.157Z,99.90
2019-03-22T05:58:37.909Z,99.90
2019-03-22T05:59:24.796Z,99.90
2019-03-22T06:00:13.432Z,99.90
2019-03-22T06:00:59.949Z,99.90
2019-03-22T06:01:46.300Z,99.90
2019-03-22T06:02:32.725Z,99.90
2019-03-22T06:03:19.467Z,99.90
2019-03-22T06:04:06.324Z,99.90
2019-03-22T06:04:52.660Z,99.90
2019-03-22T06:05:38.978Z,99.90
2019-03-22T06:06:25.276Z,99.90
2019-03-22T06:07:12.031Z,99.90
2019-03-22T06:07:59.132Z,99.90
2019-03-22T06:08:45.725Z,99.90
2019-03-22T06:09:31.971Z,99.90
2019-03-22T06:10:18.124Z,99.90
2019-03-22T06:11:04.325Z,99.90
2019-03-22T06:11:50.582Z,99.90
2019-03-22T06:12:37.211Z,99.90
2019-03-22T06:13:23.415Z,99.90
2019-03-22T06:14:10.111Z,99.90
2019-03-22T06:14:56.858Z,99.90
2019-03-22T06:15:43.493Z,99.90
2019-03-22T06:16:29.753Z,99.90
2019-03-22T06:17:16.445Z,99.90
2019-03-22T06:18:03.150Z,99.90
2019-03-22T06:18:50.432Z,99.90
2019-03-22T06:19:37.027Z,99.90
2019-03-22T06:20:23.181Z,99.90
2019-03-22T06:21:09.369Z,99.90
2019-03-22T06:21:55.983Z,99.90
2019-03-22T06:22:42.708Z,99.90
2019-03-22T06:23:28.864Z,99.90
2019-03-22T06:24:15.016Z,99.90
2019-03-22T06:25:01.179Z,99.90
2019-03-22T06:25:48.023Z,99.90
2019-03-22T06:26:34.240Z,99.90
2019-03-22T06:27:21.040Z,99.90
2019-03-22T06:28:07.265Z,99.90
2019-03-22T06:28:53.551Z,99.90
2019-03-22T06:29:39.931Z,99.90
2019-03-22T06:30:26.571Z,99.90
2019-03-22T06:31:12.875Z,99.90
2019-03-22T06:31:59.778Z,99.90
2019-03-22T06:32:46.581Z,99.90
2019-03-22T06:33:32.851Z,99.90
2019-03-22T06:34:19.133Z,99.90
2019-03-22T06:35:06.096Z,99.90
2019-03-22T06:35:52.726Z,99.90
2019-03-22T06:36:39.213Z,99.90
2019-03-22T06:37:25.903Z,99.90
2019-03-22T06:38:12.378Z,99.90
2019-03-22T06:38:58.826Z,99.90
2019-03-22T06:39:45.106Z,99.90
2019-03-22T06:40:31.447Z,99.90
2019-03-22T06:41:18.265Z,99.90
2019-03-22T06:42:05.008Z,99.90
2019-03-22T06:42:51.229Z,99.90
2019-03-22T06:43:37.496Z,99.90
2019-03-22T06:44:23.684Z,99.90
2019-03-22T06:45:09.976Z,99.90
2019-03-22T06:45:56.435Z,99.90
2019-03-22T06:46:42.611Z,99.90
2019-03-22T06:47:28.893Z,99.90
2019-03-22T06:48:15.478Z,99.90
2019-03-22T06:49:02.359Z,99.90
2019-03-22T06:49:48.973Z,99.90
2019-03-22T06:50:35.534Z,99.90
2019-03-22T06:51:21.675Z,99.90
2019-03-22T06:52:07.875Z,99.90
2019-03-22T06:52:54.603Z,99.90
2019-03-22T06:53:40.809Z,99.90
2019-03-22T06:54:31.778Z,99.90
2019-03-22T06:55:15.172Z,99.90
2019-03-22T06:56:01.452Z,99.90
2019-03-22T06:56:47.655Z,99.90
2019-03-22T06:57:33.892Z,99.90
2019-03-22T06:58:20.248Z,99.90
2019-03-22T06:59:07.011Z,99.90
2019-03-22T07:00:05.537Z,99.90
2019-03-22T07:00:41.877Z,99.90
2019-03-22T07:01:28.546Z,99.90
2019-03-22T07:02:15.224Z,99.90
2019-03-22T07:03:01.548Z,99.90
2019-03-22T07:03:48.311Z,99.90
2019-03-22T07:04:34.678Z,99.90
2019-03-22T07:05:20.866Z,99.90
2019-03-22T07:06:07.211Z,99.90
2019-03-22T07:06:53.620Z,99.90
2019-03-22T07:07:40.218Z,99.90
2019-03-22T07:08:26.931Z,99.90
2019-03-22T07:09:13.294Z,99.90
2019-03-22T07:09:59.563Z,99.90
2019-03-22T07:10:45.954Z,99.90
2019-03-22T07:11:32.710Z,99.90
2019-03-22T07:12:19.039Z,99.90
2019-03-22T07:13:05.398Z,99.90
2019-03-22T07:13:52.301Z,99.90
2019-03-22T07:14:38.678Z,99.90
2019-03-22T07:15:25.037Z,99.90
2019-03-22T07:16:11.282Z,99.90
2019-03-22T07:16:58.900Z,99.90
2019-03-22T07:17:45.615Z,99.90
2019-03-22T07:18:32.414Z,99.90
2019-03-22T07:19:19.210Z,99.90
2019-03-22T07:20:05.847Z,99.90
2019-03-22T07:20:52.135Z,99.90
2019-03-22T07:21:38.770Z,99.90
2019-03-22T07:22:25.010Z,99.90
2019-03-22T07:23:11.270Z,99.90
2019-03-22T07:23:57.894Z,99.90
2019-03-22T07:24:44.712Z,99.90
2019-03-22T07:25:31.345Z,99.90
2019-03-22T07:26:17.579Z,99.90
2019-03-22T07:27:04.021Z,99.90
2019-03-22T07:27:50.469Z,99.90
2019-03-22T07:28:36.697Z,99.90
2019-03-22T07:29:22.818Z,99.90
2019-03-22T07:30:18.136Z,99.90
2019-03-22T07:30:57.408Z,99.90
2019-03-22T07:31:44.053Z,99.90
2019-03-22T07:32:30.314Z,99.90
2019-03-22T07:33:16.733Z,99.90
2019-03-22T07:34:03.677Z,99.90
2019-03-22T07:34:50.055Z,99.90
2019-03-22T07:35:36.809Z,99.90
2019-03-22T07:36:23.502Z,99.90
2019-03-22T07:37:09.799Z,99.90
2019-03-22T07:37:56.601Z,99.90
2019-03-22T07:38:43.278Z,99.90
2019-03-22T07:39:30.035Z,99.90
2019-03-22T07:40:16.297Z,99.90
2019-03-22T07:41:02.589Z,99.90
2019-03-22T07:41:49.276Z,99.90
2019-03-22T07:42:35.775Z,99.90
2019-03-22T07:43:22.375Z,99.90
2019-03-22T07:44:09.102Z,99.90
2019-03-22T07:44:55.726Z,99.90
2019-03-22T07:45:42.615Z,99.90
2019-03-22T07:46:28.957Z,99.90
2019-03-22T07:47:15.640Z,99.90
2019-03-22T07:48:02.315Z,99.90
2019-03-22T07:48:50.788Z,99.90
2019-03-22T07:49:37.603Z,99.90
2019-03-22T07:50:24.141Z,99.90
2019-03-22T07:51:10.719Z,99.90
2019-03-22T07:51:57.481Z,99.90
2019-03-22T07:52:44.150Z,99.90
2019-03-22T07:53:31.241Z,99.90
2019-03-22T07:54:17.905Z,99.90
2019-03-22T07:55:04.931Z,99.90
2019-03-22T07:55:51.373Z,99.90
2019-03-22T07:56:38.107Z,99.90
2019-03-22T07:57:24.959Z,99.90
2019-03-22T07:58:11.638Z,99.90
2019-03-22T07:58:58.492Z,99.90
2019-03-22T07:59:46.416Z,99.90
2019-03-22T08:00:36.021Z,99.90
2019-03-22T08:01:22.497Z,99.90
2019-03-22T08:02:11.015Z,99.90
2019-03-22T08:02:57.980Z,99.90
2019-03-22T08:03:44.501Z,99.90
2019-03-22T08:04:31.312Z,99.90
2019-03-22T08:05:18.123Z,99.90
2019-03-22T08:06:04.787Z,99.90
2019-03-22T08:06:51.592Z,99.90
2019-03-22T08:07:38.471Z,99.90
2019-03-22T08:08:25.008Z,99.90
2019-03-22T08:09:11.664Z,99.90
2019-03-22T08:09:58.153Z,99.90
2019-03-22T08:10:44.750Z,99.90
2019-03-22T08:11:31.534Z,99.90
2019-03-22T08:12:19.502Z,99.90
2019-03-22T08:13:05.971Z,99.90
2019-03-22T08:13:52.710Z,99.90
2019-03-22T08:14:39.441Z,99.90
2019-03-22T08:15:30.570Z,99.90
2019-03-22T08:16:16.918Z,99.90
2019-03-22T08:17:03.719Z,99.90
2019-03-22T08:17:50.254Z,99.90
2019-03-22T08:18:36.553Z,99.90
2019-03-22T08:19:23.189Z,99.90
2019-03-22T08:20:09.942Z,99.90
2019-03-22T08:20:56.668Z,99.90
2019-03-22T08:21:43.089Z,99.90
2019-03-22T08:22:29.365Z,99.90
2019-03-22T08:23:20.564Z,99.90
2019-03-22T08:24:07.095Z,99.90
2019-03-22T08:24:53.413Z,99.90
2019-03-22T08:25:43.383Z,99.90
2019-03-22T08:26:28.400Z,99.90
2019-03-22T08:27:15.206Z,99.90
2019-03-22T08:28:01.776Z,99.90
2019-03-22T08:28:48.474Z,99.90
2019-03-22T08:29:35.186Z,99.90
2019-03-22T08:30:21.998Z,99.90
2019-03-22T08:31:08.695Z,99.90
2019-03-22T08:31:55.352Z,99.90
2019-03-22T08:32:41.530Z,99.90
2019-03-22T08:33:28.820Z,99.90
2019-03-22T08:34:15.399Z,99.90
2019-03-22T08:35:02.058Z,99.90
2019-03-22T08:35:48.717Z,99.90
2019-03-22T08:36:34.875Z,99.90
2019-03-22T08:37:21.155Z,99.90
2019-03-22T08:38:11.583Z,99.90
2019-03-22T08:38:58.272Z,99.90
2019-03-22T08:39:44.939Z,99.90
2019-03-22T08:40:33.512Z,99.90
2019-03-22T08:41:20.270Z,99.90
2019-03-22T08:42:07.210Z,99.90
2019-03-22T08:42:53.513Z,99.90
2019-03-22T08:43:40.168Z,99.90
2019-03-22T08:44:26.792Z,99.90
2019-03-22T08:45:13.573Z,99.90
2019-03-22T08:46:00.224Z,99.90
2019-03-22T08:46:46.709Z,99.90
2019-03-22T08:47:34.640Z,99.90
2019-03-22T08:48:21.403Z,99.90
2019-03-22T08:49:09.662Z,99.90
2019-03-22T08:49:56.447Z,99.90
2019-03-22T08:50:43.040Z,99.90
2019-03-22T08:51:29.979Z,99.90
2019-03-22T08:52:16.520Z,99.90
2019-03-22T08:53:03.334Z,99.90
2019-03-22T08:53:55.196Z,99.90
2019-03-22T08:54:38.608Z,99.90
2019-03-22T08:55:25.149Z,99.90
2019-03-22T08:56:11.848Z,99.90
2019-03-22T08:56:58.496Z,99.90
2019-03-22T08:57:45.217Z,99.90
2019-03-22T08:58:31.820Z,99.90
2019-03-22T08:59:18.448Z,99.90
2019-03-22T09:00:06.426Z,99.90
2019-03-22T09:00:57.630Z,99.90
2019-03-22T09:01:41.643Z,99.90
2019-03-22T09:02:28.253Z,99.90
2019-03-22T09:03:15.061Z,99.90
2019-03-22T09:04:03.681Z,99.90
2019-03-22T09:04:50.332Z,99.90
2019-03-22T09:05:37.255Z,99.90
2019-03-22T09:06:24.036Z,99.90
2019-03-22T09:07:10.339Z,99.90
2019-03-22T09:07:56.801Z,99.90
2019-03-22T09:08:43.513Z,99.90
2019-03-22T09:09:40.883Z,99.90
2019-03-22T09:10:19.258Z,99.90
2019-03-22T09:11:08.420Z,99.90
2019-03-22T09:11:55.204Z,99.90
2019-03-22T09:12:41.762Z,99.90
2019-03-22T09:13:28.386Z,99.90
2019-03-22T09:14:14.911Z,99.90
2019-03-22T09:15:01.490Z,99.90
2019-03-22T09:15:48.147Z,99.90
2019-03-22T09:16:34.601Z,99.90
2019-03-22T09:17:22.124Z,99.90
2019-03-22T09:18:08.974Z,99.90
2019-03-22T09:18:55.904Z,99.90
2019-03-22T09:19:42.692Z,99.90
2019-03-22T09:20:29.580Z,99.90
2019-03-22T09:21:16.725Z,99.90
2019-03-22T09:22:06.331Z,94.40
2019-03-22T09:22:53.146Z,93.30
2019-03-22T09:23:39.676Z,96.90
2019-03-22T09:24:38.546Z,77.70
2019-03-22T09:25:15.274Z,69.60
2019-03-22T09:26:02.042Z,78.40
2019-03-22T09:26:48.519Z,91.70
2019-03-22T09:27:36.537Z,89.20
2019-03-22T09:28:25.099Z,83.80
2019-03-22T09:29:11.813Z,84.50
2019-03-22T09:29:58.559Z,88.90
2019-03-22T09:30:44.891Z,91.60
2019-03-22T09:31:31.503Z,99.50
2019-03-22T09:32:17.698Z,99.90
2019-03-22T09:33:04.614Z,99.90
2019-03-22T09:33:51.222Z,99.90
2019-03-22T09:34:38.015Z,99.90
2019-03-22T09:35:24.619Z,99.90
2019-03-22T09:36:11.300Z,99.90
2019-03-22T09:36:57.545Z,99.90
2019-03-22T09:37:44.232Z,99.90
2019-03-22T09:38:30.857Z,99.90
2019-03-22T09:39:17.066Z,99.90
2019-03-22T09:40:04.147Z,99.90
2019-03-22T09:40:50.819Z,99.50
2019-03-22T09:41:37.106Z,99.90
2019-03-22T09:42:23.715Z,99.90
2019-03-22T09:43:09.984Z,99.90
2019-03-22T09:43:56.736Z,99.90
2019-03-22T09:44:44.210Z,99.90
2019-03-22T09:45:31.265Z,99.90
2019-03-22T09:46:17.431Z,99.90
2019-03-22T09:47:04.233Z,99.90
2019-03-22T09:47:50.926Z,99.90
2019-03-22T09:48:37.589Z,99.90
2019-03-22T09:49:23.842Z,99.90
2019-03-22T09:50:10.332Z,99.90
2019-03-22T09:50:56.920Z,99.90
2019-03-22T09:51:43.708Z,99.90
2019-03-22T09:52:30.404Z,99.90
2019-03-22T09:53:16.993Z,99.90
2019-03-22T09:54:03.786Z,99.90
2019-03-22T09:54:50.052Z,99.90
2019-03-22T09:55:36.467Z,99.90
2019-03-22T09:56:23.246Z,99.90
2019-03-22T09:57:10.078Z,99.90
2019-03-22T09:57:57.083Z,99.90
2019-03-22T09:58:43.560Z,99.90
2019-03-22T09:59:29.852Z,99.90
2019-03-22T10:00:28.851Z,99.90
2019-03-22T10:01:23.602Z,99.90
2019-03-22T10:02:03.258Z,99.90
2019-03-22T10:02:49.984Z,99.90
2019-03-22T10:03:36.638Z,99.90
2019-03-22T10:04:23.091Z,99.90
2019-03-22T10:05:09.603Z,99.90
2019-03-22T10:05:56.305Z,99.90
2019-03-22T10:06:42.910Z,99.90
2019-03-22T10:07:29.544Z,98.30
2019-03-22T10:08:15.751Z,99.90
2019-03-22T10:09:05.244Z,99.90
2019-03-22T10:09:50.083Z,99.90
2019-03-22T10:10:36.714Z,99.90